createdAt,value
2023-05-13T00:04:51.904Z,3.35
2023-05-13T00:09:53.284Z,3.72
2023-05-13T00:14:54.732Z,4.28
2023-05-13T00:19:56.113Z,3.88
2023-05-13T00:24:57.565Z,3.58
2023-05-13T00:29:59.906Z,3.70
2023-05-13T00:35:01.576Z,3.60
2023-05-13T00:40:03.741Z,3.22
2023-05-13T00:45:06.409Z,3.92
2023-05-13T00:50:09.559Z,3.40
2023-05-13T00:55:11.248Z,3.42
2023-05-13T01:00:14.434Z,2.92
2023-05-13T01:05:43.052Z,3.00
2023-05-13T01:10:57.525Z,3.38
2023-05-13T01:16:04.306Z,3.80
2023-05-13T01:21:07.759Z,3.53
2023-05-13T01:26:09.220Z,3.90
2023-05-13T01:31:11.290Z,3.35
2023-05-13T01:36:13.837Z,3.75
2023-05-13T01:41:15.452Z,3.35
2023-05-13T01:46:17.072Z,3.78
2023-05-13T01:51:18.745Z,3.42
2023-05-13T01:56:21.243Z,3.88
2023-05-13T02:01:23.065Z,3.40
2023-05-13T02:06:24.847Z,3.50
2023-05-13T02:11:26.221Z,3.30
2023-05-13T02:16:27.662Z,3.25
2023-05-13T02:21:29.875Z,3.70
2023-05-13T02:26:31.427Z,3.63
2023-05-13T02:31:33.091Z,3.70
2023-05-13T02:36:34.493Z,3.53
2023-05-13T02:41:37.276Z,3.53
2023-05-13T02:46:38.671Z,3.13
2023-05-13T02:51:40.037Z,3.50
2023-05-13T02:56:41.580Z,4.05
2023-05-13T03:01:43.103Z,3.47
2023-05-13T03:06:44.863Z,3.47
2023-05-13T03:11:46.569Z,3.30
2023-05-13T03:16:47.954Z,3.20
2023-05-13T03:21:49.708Z,3.88
2023-05-13T03:26:51.290Z,3.33
2023-05-13T03:31:53.755Z,3.90
2023-05-13T03:36:55.238Z,3.00
2023-05-13T03:41:56.610Z,3.40
2023-05-13T03:46:58.228Z,3.80
2023-05-13T03:51:59.647Z,4.28
2023-05-13T03:57:01.219Z,4.32
2023-05-13T04:02:05.084Z,4.30
2023-05-13T04:07:06.507Z,4.50
2023-05-13T04:12:08.196Z,4.68
2023-05-13T04:17:09.835Z,5.30
2023-05-13T04:22:11.526Z,4.13
2023-05-13T04:27:13.113Z,4.63
2023-05-13T04:32:17.907Z,3.88
2023-05-13T04:37:19.509Z,4.80
2023-05-13T04:42:20.943Z,4.05
2023-05-13T04:47:22.860Z,3.97
2023-05-13T04:52:24.389Z,4.00
2023-05-13T04:57:25.804Z,4.25
2023-05-13T05:02:30.188Z,3.80
2023-05-13T05:07:34.361Z,4.03
2023-05-13T05:12:36.676Z,4.07
2023-05-13T05:17:38.397Z,4.20
2023-05-13T05:22:41.870Z,3.95
2023-05-13T05:27:43.291Z,4.27
2023-05-13T05:32:44.808Z,4.43
2023-05-13T05:37:46.595Z,3.90
2023-05-13T05:42:48.039Z,3.70
2023-05-13T05:47:50.432Z,3.85
2023-05-13T05:52:52.119Z,3.55
2023-05-13T05:57:53.443Z,4.00
2023-05-13T06:02:55.151Z,3.67
2023-05-13T06:07:56.744Z,4.70
2023-05-13T06:12:58.784Z,4.03
2023-05-13T06:18:00.260Z,3.65
2023-05-13T06:23:01.685Z,3.15
2023-05-13T06:28:03.588Z,3.53
2023-05-13T06:33:05.560Z,3.08
2023-05-13T06:38:07.325Z,2.92
2023-05-13T06:43:08.951Z,3.00
2023-05-13T06:48:10.579Z,3.22
2023-05-13T06:53:12.749Z,2.65
2023-05-13T06:58:14.344Z,3.15
2023-05-13T07:03:16.445Z,3.85
2023-05-13T07:08:19.279Z,3.03
2023-05-13T07:13:21.047Z,13.98
2023-05-13T07:18:22.568Z,3.80
2023-05-13T07:23:25.358Z,3.08
2023-05-13T07:28:27.110Z,2.45
2023-05-13T07:33:28.574Z,2.35
2023-05-13T07:38:29.963Z,3.10
2023-05-13T07:43:35.156Z,2.60
2023-05-13T07:48:36.814Z,2.50
2023-05-13T07:53:38.452Z,2.70
2023-05-13T07:58:39.847Z,2.40
2023-05-13T08:03:41.375Z,2.70
2023-05-13T08:08:42.854Z,2.75
2023-05-13T08:13:44.426Z,3.00
2023-05-13T08:18:45.824Z,2.28
2023-05-13T08:23:47.496Z,2.65
2023-05-13T08:28:52.192Z,2.80
2023-05-13T08:33:56.076Z,2.40
2023-05-13T08:38:57.518Z,2.45
2023-05-13T08:44:00.357Z,5.50
2023-05-13T08:49:02.464Z,2.05
2023-05-13T08:54:04.696Z,2.05
2023-05-13T08:59:06.167Z,2.17
2023-05-13T09:04:09.811Z,1.80
2023-05-13T09:14:13.677Z,2.03
2023-05-13T09:19:15.393Z,2.15
2023-05-13T09:24:21.616Z,1.85
2023-05-13T09:29:24.401Z,1.90
2023-05-13T09:34:30.977Z,1.50
2023-05-13T09:39:37.976Z,1.50
2023-05-13T09:44:39.358Z,1.60
2023-05-13T09:49:41.890Z,2.17
2023-05-13T09:54:44.335Z,1.50
2023-05-13T09:59:45.676Z,1.70
2023-05-13T10:04:47.208Z,1.80
2023-05-13T10:09:48.570Z,2.03
2023-05-13T10:14:51.958Z,1.48
2023-05-13T10:19:54.832Z,2.08
2023-05-13T10:25:00.213Z,1.90
2023-05-13T10:30:04.035Z,1.50
2023-05-13T10:35:14.906Z,1.45
2023-05-13T10:40:44.602Z,1.73
2023-05-13T10:45:58.165Z,1.75
2023-05-13T10:51:07.867Z,2.40
2023-05-13T10:56:09.170Z,1.95
2023-05-13T11:01:28.153Z,1.75
2023-05-13T11:06:34.318Z,1.67
2023-05-13T11:11:37.023Z,1.67
2023-05-13T11:16:38.582Z,1.83
2023-05-13T11:21:40.756Z,1.92
2023-05-13T11:26:48.083Z,2.10
2023-05-13T11:31:57.813Z,2.20
2023-05-13T11:37:04.044Z,2.10
2023-05-13T11:42:08.689Z,1.77
2023-05-13T11:47:10.080Z,2.30
2023-05-13T11:52:15.620Z,2.30
2023-05-13T11:57:36.929Z,1.90
2023-05-13T12:02:40.420Z,2.30
2023-05-13T12:07:43.084Z,1.73
2023-05-13T12:12:45.882Z,2.00
2023-05-13T12:17:48.326Z,1.92
2023-05-13T12:22:52.358Z,2.30
2023-05-13T12:27:53.823Z,2.00
2023-05-13T12:32:58.817Z,1.65
2023-05-13T12:38:05.085Z,1.27
2023-05-13T12:43:06.465Z,1.02
2023-05-13T12:48:08.160Z,1.20
2023-05-13T12:53:09.721Z,1.05
2023-05-13T12:58:11.234Z,1.02
2023-05-13T13:03:12.764Z,1.30
2023-05-13T13:08:14.142Z,1.38
2023-05-13T13:13:15.814Z,1.25
2023-05-13T13:18:18.246Z,1.00
2023-05-13T13:23:20.320Z,1.10
2023-05-13T13:28:21.623Z,1.23
2023-05-13T13:33:23.142Z,1.73
2023-05-13T13:38:24.566Z,1.65
2023-05-13T13:43:25.939Z,1.75
2023-05-13T13:48:27.407Z,1.70
2023-05-13T13:53:28.818Z,1.60
2023-05-13T13:58:30.152Z,1.70
2023-05-13T14:03:31.733Z,2.00
2023-05-13T14:08:33.199Z,2.17
2023-05-13T14:13:34.573Z,1.42
2023-05-13T14:18:35.896Z,2.00
2023-05-13T14:23:38.385Z,1.85
2023-05-13T14:28:39.670Z,1.50
2023-05-13T14:33:41.139Z,1.95
2023-05-13T14:38:43.570Z,2.30
2023-05-13T14:43:48.376Z,2.22
2023-05-13T14:48:49.758Z,1.63
2023-05-13T14:53:51.550Z,1.60
2023-05-13T14:58:53.248Z,2.00
2023-05-13T15:03:54.564Z,1.75
2023-05-13T15:08:56.368Z,1.88
2023-05-13T15:13:57.825Z,1.95
2023-05-13T15:18:59.170Z,2.75
2023-05-13T15:24:00.580Z,1.52
2023-05-13T15:29:02.013Z,1.83
2023-05-13T15:34:03.426Z,2.42
2023-05-13T15:39:04.906Z,2.00
2023-05-13T15:44:06.243Z,3.03
2023-05-13T15:49:07.574Z,2.25
2023-05-13T15:54:08.908Z,2.10
2023-05-13T15:59:10.317Z,2.53
2023-05-13T16:04:11.704Z,2.08
2023-05-13T16:09:13.262Z,1.80
2023-05-13T16:14:14.615Z,2.00
2023-05-13T16:19:15.958Z,2.05
2023-05-13T16:24:17.277Z,2.13
2023-05-13T16:29:18.647Z,2.47
2023-05-13T16:34:19.956Z,2.30
2023-05-13T16:39:21.246Z,2.00
2023-05-13T16:44:22.621Z,2.15
2023-05-13T16:49:24.540Z,3.28
2023-05-13T16:54:26.072Z,2.20
2023-05-13T16:59:28.217Z,2.65
2023-05-13T17:04:29.660Z,2.58
2023-05-13T17:09:31.082Z,2.20
2023-05-13T17:14:32.415Z,1.80
2023-05-13T17:19:33.940Z,3.20
2023-05-13T17:24:35.845Z,8.02
2023-05-13T17:29:37.386Z,3.55
2023-05-13T17:34:38.809Z,2.47
2023-05-13T17:39:40.186Z,2.40
2023-05-13T17:44:41.614Z,2.80
2023-05-13T17:49:42.931Z,2.78
2023-05-13T17:54:44.227Z,2.63
2023-05-13T17:59:45.598Z,2.42
2023-05-13T18:04:46.948Z,2.00
2023-05-13T18:09:49.930Z,2.40
2023-05-13T18:14:52.016Z,2.38
2023-05-13T18:19:53.309Z,2.15
2023-05-13T18:24:54.658Z,2.17
2023-05-13T18:29:56.034Z,2.38
2023-05-13T18:34:57.496Z,2.60
2023-05-13T18:39:59.275Z,2.22
2023-05-13T18:45:00.656Z,2.47
2023-05-13T18:50:01.978Z,2.85
2023-05-13T18:55:05.004Z,2.90
2023-05-13T19:00:07.099Z,3.17
2023-05-13T19:05:08.630Z,3.85
2023-05-13T19:10:10.145Z,3.33
2023-05-13T19:15:11.631Z,3.67
2023-05-13T19:20:13.285Z,3.80
2023-05-13T19:25:14.670Z,4.95
2023-05-13T19:30:16.141Z,5.13
2023-05-13T19:35:17.578Z,5.60
2023-05-13T19:40:18.990Z,4.55
2023-05-13T19:45:20.829Z,5.70
2023-05-13T19:50:22.415Z,4.45
2023-05-13T19:55:24.373Z,4.55
2023-05-13T20:00:25.880Z,4.18
2023-05-13T20:05:27.366Z,3.78
2023-05-13T20:10:29.097Z,3.88
2023-05-13T20:15:31.282Z,3.90
2023-05-13T20:20:32.608Z,3.63
2023-05-13T20:25:33.908Z,3.50
2023-05-13T20:30:35.430Z,4.22
2023-05-13T20:35:39.921Z,4.80
2023-05-13T20:40:41.291Z,4.30
2023-05-13T20:45:43.113Z,4.00
2023-05-13T20:50:44.656Z,4.63
2023-05-13T20:55:46.016Z,4.32
2023-05-13T21:00:47.476Z,4.28
2023-05-13T21:05:48.850Z,4.72
2023-05-13T21:10:50.199Z,4.82
2023-05-13T21:15:51.889Z,4.70
2023-05-13T21:20:53.369Z,4.95
2023-05-13T21:25:54.772Z,4.97
2023-05-13T21:30:56.089Z,5.00
2023-05-13T21:35:57.456Z,4.68
2023-05-13T21:40:59.301Z,4.55
2023-05-13T21:46:00.653Z,5.00
2023-05-13T21:51:02.083Z,6.00
2023-05-13T21:56:03.918Z,4.53
2023-05-13T22:01:05.318Z,3.72
2023-05-13T22:06:06.842Z,3.58
2023-05-13T22:11:08.182Z,3.45
2023-05-13T22:16:09.628Z,2.63
2023-05-13T22:21:11.094Z,2.83
2023-05-13T22:26:12.453Z,3.05
2023-05-13T22:31:14.969Z,2.58
2023-05-13T22:36:16.289Z,2.83
2023-05-13T22:41:20.623Z,3.63
2023-05-13T22:46:22.022Z,3.17
2023-05-13T22:51:23.394Z,3.00
2023-05-13T22:56:24.883Z,3.10
2023-05-13T23:01:26.283Z,3.63
2023-05-13T23:06:27.712Z,3.33
2023-05-13T23:11:28.976Z,4.65
2023-05-13T23:16:30.399Z,4.80
2023-05-13T23:21:32.298Z,5.03
2023-05-13T23:26:33.661Z,4.70
2023-05-13T23:31:35.219Z,4.82
2023-05-13T23:36:36.580Z,5.20
2023-05-13T23:41:38.002Z,4.95
2023-05-13T23:46:39.410Z,4.85
2023-05-13T23:51:40.827Z,3.88
2023-05-13T23:56:42.194Z,4.07
